Main page
METAR-TAF:

METAR-TAF

Airports :

Berlin Regional Airport

Berlin, New Hampshire, United States

latitude: 44-34-34N, longitude: 071-10-43W, elevation: 1158 ft

Current weather observation

The report was made 28 minutes ago, at 16:52 UTC
Wind 9 mph from the North/Northwest
Temperature 66°F
Humidity 52%
Pressure 30.13 in. Hg
Visibility: 10 miles
Overcast at a height of 5000 ft

METAR: KBML 221652Z AUTO 34008KT 10SM OVC050 19/09 A3013 RMK AO2 SLP208 T01890089

Time: 13:20 (17:20 UTC)


TAF: missing

Weather observations and forecasts of more than 4000 airports (METAR and TAF reports).

The available stations are represented by yellow and red dots on the map.

Hover mouse over dot to see the name of the station.

Then click to see weather observations and forecasts.

To change the map : click on the green buttons with a black cross to zoom in, on the green button with a dash to zoom out, or on the green arrows for adjacent maps.


METAR-TAF: